sensor_id;sensor_type;location;lat;lon;timestamp;P1;durP1;ratioP1;P2;durP2;ratioP2
6097;SDS011;3077;50.922;6.584;2024-03-06T00:02:07;935.13;;;880.60;;
6097;SDS011;3077;50.922;6.584;2024-03-06T00:04:33;917.30;;;863.67;;
6097;SDS011;3077;50.922;6.584;2024-03-06T00:06:59;874.87;;;823.67;;
6097;SDS011;3077;50.922;6.584;2024-03-06T00:09:25;903.77;;;851.07;;
6097;SDS011;3077;50.922;6.584;2024-03-06T00:11:55;858.87;;;809.87;;
6097;SDS011;3077;50.922;6.584;2024-03-06T00:14:21;845.07;;;796.70;;
6097;SDS011;3077;50.922;6.584;2024-03-06T00:16:48;850.53;;;800.97;;
6097;SDS011;3077;50.922;6.584;2024-03-06T00:19:17;849.37;;;799.87;;
6097;SDS011;3077;50.922;6.584;2024-03-06T00:21:43;863.13;;;813.13;;
6097;SDS011;3077;50.922;6.584;2024-03-06T00:24:11;840.93;;;792.43;;
6097;SDS011;3077;50.922;6.584;2024-03-06T00:26:39;880.17;;;828.63;;
6097;SDS011;3077;50.922;6.584;2024-03-06T00:29:05;879.17;;;829.10;;
6097;SDS011;3077;50.922;6.584;2024-03-06T00:31:31;896.40;;;844.43;;
6097;SDS011;3077;50.922;6.584;2024-03-06T00:33:57;873.47;;;822.60;;
6097;SDS011;3077;50.922;6.584;2024-03-06T00:36:22;896.43;;;844.63;;
6097;SDS011;3077;50.922;6.584;2024-03-06T00:38:48;885.60;;;833.20;;
6097;SDS011;3077;50.922;6.584;2024-03-06T00:41:13;889.50;;;837.93;;
6097;SDS011;3077;50.922;6.584;2024-03-06T00:43:39;890.30;;;837.27;;
6097;SDS011;3077;50.922;6.584;2024-03-06T00:46:05;917.90;;;862.00;;
6097;SDS011;3077;50.922;6.584;2024-03-06T00:48:30;913.03;;;857.00;;
6097;SDS011;3077;50.922;6.584;2024-03-06T00:50:56;905.57;;;847.60;;
6097;SDS011;3077;50.922;6.584;2024-03-06T00:53:21;942.87;;;885.60;;
6097;SDS011;3077;50.922;6.584;2024-03-06T00:55:47;884.40;;;827.47;;
6097;SDS011;3077;50.922;6.584;2024-03-06T00:58:13;922.77;;;858.23;;
6097;SDS011;3077;50.922;6.584;2024-03-06T01:00:38;916.37;;;856.37;;
6097;SDS011;3077;50.922;6.584;2024-03-06T01:03:04;905.67;;;849.20;;
6097;SDS011;3077;50.922;6.584;2024-03-06T01:05:29;881.10;;;829.03;;
6097;SDS011;3077;50.922;6.584;2024-03-06T01:07:55;910.90;;;856.00;;
6097;SDS011;3077;50.922;6.584;2024-03-06T01:10:21;912.03;;;856.67;;
6097;SDS011;3077;50.922;6.584;2024-03-06T01:12:47;905.63;;;851.03;;
6097;SDS011;3077;50.922;6.584;2024-03-06T01:15:13;886.43;;;835.23;;
6097;SDS011;3077;50.922;6.584;2024-03-06T01:17:39;867.47;;;816.80;;
6097;SDS011;3077;50.922;6.584;2024-03-06T01:20:05;865.43;;;815.43;;
6097;SDS011;3077;50.922;6.584;2024-03-06T01:22:34;868.93;;;818.93;;
6097;SDS011;3077;50.922;6.584;2024-03-06T01:25:00;820.30;;;772.63;;
6097;SDS011;3077;50.922;6.584;2024-03-06T01:27:26;865.17;;;813.47;;
6097;SDS011;3077;50.922;6.584;2024-03-06T01:29:52;856.17;;;805.93;;
6097;SDS011;3077;50.922;6.584;2024-03-06T01:32:17;820.07;;;772.33;;
6097;SDS011;3077;50.922;6.584;2024-03-06T01:34:43;860.27;;;810.40;;
6097;SDS011;3077;50.922;6.584;2024-03-06T01:37:08;832.53;;;783.90;;
6097;SDS011;3077;50.922;6.584;2024-03-06T01:39:34;820.50;;;774.00;;
6097;SDS011;3077;50.922;6.584;2024-03-06T01:42:01;844.50;;;795.73;;
6097;SDS011;3077;50.922;6.584;2024-03-06T01:44:27;856.10;;;806.93;;
6097;SDS011;3077;50.922;6.584;2024-03-06T01:46:52;823.80;;;777.33;;
6097;SDS011;3077;50.922;6.584;2024-03-06T01:49:19;813.30;;;766.60;;
6097;SDS011;3077;50.922;6.584;2024-03-06T01:51:48;797.80;;;753.70;;
6097;SDS011;3077;50.922;6.584;2024-03-06T01:54:16;768.30;;;726.10;;
6097;SDS011;3077;50.922;6.584;2024-03-06T01:56:44;787.13;;;743.17;;
6097;SDS011;3077;50.922;6.584;2024-03-06T01:59:12;776.53;;;734.17;;
6097;SDS011;3077;50.922;6.584;2024-03-06T02:01:39;787.27;;;743.17;;
6097;SDS011;3077;50.922;6.584;2024-03-06T02:04:06;797.87;;;753.57;;
6097;SDS011;3077;50.922;6.584;2024-03-06T02:06:34;777.50;;;735.60;;
6097;SDS011;3077;50.922;6.584;2024-03-06T02:09:00;774.73;;;732.63;;
6097;SDS011;3077;50.922;6.584;2024-03-06T02:11:28;812.03;;;767.63;;
6097;SDS011;3077;50.922;6.584;2024-03-06T02:13:54;769.63;;;726.30;;
6097;SDS011;3077;50.922;6.584;2024-03-06T02:16:20;734.40;;;694.93;;
6097;SDS011;3077;50.922;6.584;2024-03-06T02:18:52;791.60;;;748.53;;
6097;SDS011;3077;50.922;6.584;2024-03-06T02:21:19;741.50;;;702.60;;
6097;SDS011;3077;50.922;6.584;2024-03-06T02:23:48;754.10;;;713.10;;
6097;SDS011;3077;50.922;6.584;2024-03-06T02:26:14;685.40;;;649.77;;
6097;SDS011;3077;50.922;6.584;2024-03-06T02:28:46;740.57;;;700.93;;
6097;SDS011;3077;50.922;6.584;2024-03-06T02:31:12;718.57;;;680.00;;
6097;SDS011;3077;50.922;6.584;2024-03-06T02:33:38;744.20;;;704.53;;
6097;SDS011;3077;50.922;6.584;2024-03-06T02:36:04;726.83;;;688.60;;
6097;SDS011;3077;50.922;6.584;2024-03-06T02:38:30;713.97;;;675.93;;
6097;SDS011;3077;50.922;6.584;2024-03-06T02:40:56;726.37;;;688.27;;
6097;SDS011;3077;50.922;6.584;2024-03-06T02:43:21;669.63;;;634.10;;
6097;SDS011;3077;50.922;6.584;2024-03-06T02:45:47;697.73;;;662.03;;
6097;SDS011;3077;50.922;6.584;2024-03-06T02:48:13;664.03;;;630.33;;
6097;SDS011;3077;50.922;6.584;2024-03-06T02:50:38;667.67;;;633.60;;
6097;SDS011;3077;50.922;6.584;2024-03-06T02:53:04;657.63;;;624.40;;
6097;SDS011;3077;50.922;6.584;2024-03-06T02:55:29;709.33;;;672.63;;
6097;SDS011;3077;50.922;6.584;2024-03-06T02:57:55;670.33;;;635.57;;
6097;SDS011;3077;50.922;6.584;2024-03-06T03:00:21;657.03;;;623.57;;
6097;SDS011;3077;50.922;6.584;2024-03-06T03:02:47;661.37;;;626.53;;
6097;SDS011;3077;50.922;6.584;2024-03-06T03:05:12;654.33;;;620.73;;
6097;SDS011;3077;50.922;6.584;2024-03-06T03:07:38;651.77;;;618.33;;
6097;SDS011;3077;50.922;6.584;2024-03-06T03:10:04;658.87;;;625.80;;
6097;SDS011;3077;50.922;6.584;2024-03-06T03:12:29;640.37;;;608.27;;
6097;SDS011;3077;50.922;6.584;2024-03-06T03:14:55;616.50;;;585.90;;
6097;SDS011;3077;50.922;6.584;2024-03-06T03:17:21;645.43;;;612.53;;
6097;SDS011;3077;50.922;6.584;2024-03-06T03:19:47;628.43;;;596.87;;
6097;SDS011;3077;50.922;6.584;2024-03-06T03:22:12;623.47;;;592.40;;
6097;SDS011;3077;50.922;6.584;2024-03-06T03:24:38;629.47;;;597.73;;
6097;SDS011;3077;50.922;6.584;2024-03-06T03:27:06;611.67;;;581.00;;
6097;SDS011;3077;50.922;6.584;2024-03-06T03:29:32;621.30;;;591.03;;
6097;SDS011;3077;50.922;6.584;2024-03-06T03:31:58;603.53;;;573.27;;
6097;SDS011;3077;50.922;6.584;2024-03-06T03:34:23;637.53;;;605.20;;
6097;SDS011;3077;50.922;6.584;2024-03-06T03:36:49;665.13;;;631.63;;
6097;SDS011;3077;50.922;6.584;2024-03-06T03:39:15;647.37;;;615.00;;
6097;SDS011;3077;50.922;6.584;2024-03-06T03:41:44;624.37;;;592.90;;
6097;SDS011;3077;50.922;6.584;2024-03-06T03:44:11;637.17;;;606.10;;
6097;SDS011;3077;50.922;6.584;2024-03-06T03:46:41;641.83;;;610.03;;
6097;SDS011;3077;50.922;6.584;2024-03-06T03:49:07;606.40;;;576.23;;
6097;SDS011;3077;50.922;6.584;2024-03-06T03:51:34;609.30;;;579.00;;
6097;SDS011;3077;50.922;6.584;2024-03-06T03:54:00;565.30;;;537.30;;
6097;SDS011;3077;50.922;6.584;2024-03-06T03:56:25;589.17;;;559.90;;
6097;SDS011;3077;50.922;6.584;2024-03-06T03:58:51;535.50;;;509.60;;
6097;SDS011;3077;50.922;6.584;2024-03-06T04:01:16;568.43;;;541.00;;
6097;SDS011;3077;50.922;6.584;2024-03-06T04:03:42;565.23;;;537.73;;
6097;SDS011;3077;50.922;6.584;2024-03-06T04:06:09;544.63;;;517.87;;
6097;SDS011;3077;50.922;6.584;2024-03-06T04:08:35;583.37;;;555.13;;
6097;SDS011;3077;50.922;6.584;2024-03-06T04:11:02;594.87;;;566.33;;
6097;SDS011;3077;50.922;6.584;2024-03-06T04:13:28;563.03;;;535.33;;
6097;SDS011;3077;50.922;6.584;2024-03-06T04:15:54;526.60;;;501.03;;
6097;SDS011;3077;50.922;6.584;2024-03-06T04:18:20;540.57;;;514.30;;
6097;SDS011;3077;50.922;6.584;2024-03-06T04:20:46;525.80;;;499.93;;
6097;SDS011;3077;50.922;6.584;2024-03-06T04:23:12;632.07;;;599.97;;
6097;SDS011;3077;50.922;6.584;2024-03-06T04:25:37;543.00;;;516.90;;
6097;SDS011;3077;50.922;6.584;2024-03-06T04:28:04;548.97;;;522.47;;
6097;SDS011;3077;50.922;6.584;2024-03-06T04:30:32;624.00;;;593.50;;
6097;SDS011;3077;50.922;6.584;2024-03-06T04:32:58;709.83;;;673.23;;
6097;SDS011;3077;50.922;6.584;2024-03-06T04:35:24;606.93;;;577.80;;
6097;SDS011;3077;50.922;6.584;2024-03-06T04:37:50;609.87;;;580.07;;
6097;SDS011;3077;50.922;6.584;2024-03-06T04:40:15;579.07;;;549.73;;
6097;SDS011;3077;50.922;6.584;2024-03-06T04:42:45;554.70;;;527.40;;
6097;SDS011;3077;50.922;6.584;2024-03-06T04:45:14;626.70;;;595.53;;
6097;SDS011;3077;50.922;6.584;2024-03-06T04:47:40;618.63;;;588.13;;
6097;SDS011;3077;50.922;6.584;2024-03-06T04:50:09;601.87;;;572.23;;
6097;SDS011;3077;50.922;6.584;2024-03-06T04:52:37;579.27;;;550.77;;
6097;SDS011;3077;50.922;6.584;2024-03-06T04:55:03;577.83;;;548.67;;
6097;SDS011;3077;50.922;6.584;2024-03-06T04:57:29;608.53;;;578.97;;
6097;SDS011;3077;50.922;6.584;2024-03-06T04:59:55;590.20;;;561.20;;
6097;SDS011;3077;50.922;6.584;2024-03-06T05:02:23;608.53;;;578.57;;
6097;SDS011;3077;50.922;6.584;2024-03-06T05:04:50;595.53;;;565.27;;
6097;SDS011;3077;50.922;6.584;2024-03-06T05:07:15;640.73;;;608.73;;
6097;SDS011;3077;50.922;6.584;2024-03-06T05:09:41;622.00;;;590.80;;
6097;SDS011;3077;50.922;6.584;2024-03-06T05:12:07;640.93;;;608.07;;
6097;SDS011;3077;50.922;6.584;2024-03-06T05:14:33;641.47;;;609.27;;
6097;SDS011;3077;50.922;6.584;2024-03-06T05:16:58;716.30;;;678.27;;
6097;SDS011;3077;50.922;6.584;2024-03-06T05:19:24;673.63;;;640.13;;
6097;SDS011;3077;50.922;6.584;2024-03-06T05:21:56;646.80;;;613.03;;
6097;SDS011;3077;50.922;6.584;2024-03-06T05:24:25;647.30;;;614.20;;
6097;SDS011;3077;50.922;6.584;2024-03-06T05:26:51;634.87;;;602.97;;
6097;SDS011;3077;50.922;6.584;2024-03-06T05:29:16;668.43;;;633.23;;
6097;SDS011;3077;50.922;6.584;2024-03-06T05:31:42;681.20;;;646.93;;
6097;SDS011;3077;50.922;6.584;2024-03-06T05:34:08;890.30;;;839.40;;
6097;SDS011;3077;50.922;6.584;2024-03-06T05:36:33;639.70;;;607.77;;
6097;SDS011;3077;50.922;6.584;2024-03-06T05:38:59;822.97;;;775.83;;
6097;SDS011;3077;50.922;6.584;2024-03-06T05:41:24;599.27;;;569.87;;
6097;SDS011;3077;50.922;6.584;2024-03-06T05:43:50;604.10;;;573.53;;
6097;SDS011;3077;50.922;6.584;2024-03-06T05:46:15;661.03;;;628.13;;
6097;SDS011;3077;50.922;6.584;2024-03-06T05:48:41;625.77;;;594.80;;
6097;SDS011;3077;50.922;6.584;2024-03-06T05:51:07;611.43;;;580.73;;
6097;SDS011;3077;50.922;6.584;2024-03-06T05:53:36;655.17;;;622.63;;
6097;SDS011;3077;50.922;6.584;2024-03-06T05:56:04;661.70;;;628.13;;
6097;SDS011;3077;50.922;6.584;2024-03-06T05:58:31;911.50;;;857.87;;
6097;SDS011;3077;50.922;6.584;2024-03-06T06:00:56;663.70;;;630.03;;
6097;SDS011;3077;50.922;6.584;2024-03-06T06:03:22;752.50;;;713.23;;
6097;SDS011;3077;50.922;6.584;2024-03-06T06:05:48;622.33;;;591.40;;
6097;SDS011;3077;50.922;6.584;2024-03-06T06:08:13;672.73;;;639.23;;
6097;SDS011;3077;50.922;6.584;2024-03-06T06:10:39;750.57;;;712.30;;
6097;SDS011;3077;50.922;6.584;2024-03-06T06:13:04;586.47;;;557.50;;
6097;SDS011;3077;50.922;6.584;2024-03-06T06:15:30;638.03;;;606.70;;
6097;SDS011;3077;50.922;6.584;2024-03-06T06:17:55;584.73;;;556.13;;
6097;SDS011;3077;50.922;6.584;2024-03-06T06:20:21;627.97;;;596.57;;
6097;SDS011;3077;50.922;6.584;2024-03-06T06:22:47;610.90;;;580.93;;
6097;SDS011;3077;50.922;6.584;2024-03-06T06:25:12;596.57;;;566.90;;
6097;SDS011;3077;50.922;6.584;2024-03-06T06:27:38;564.77;;;536.70;;
6097;SDS011;3077;50.922;6.584;2024-03-06T06:30:04;641.33;;;609.30;;
6097;SDS011;3077;50.922;6.584;2024-03-06T06:32:30;619.57;;;589.53;;
6097;SDS011;3077;50.922;6.584;2024-03-06T06:34:56;728.63;;;691.13;;
6097;SDS011;3077;50.922;6.584;2024-03-06T06:37:22;623.73;;;593.33;;
6097;SDS011;3077;50.922;6.584;2024-03-06T06:39:48;598.23;;;568.10;;
6097;SDS011;3077;50.922;6.584;2024-03-06T06:42:14;576.90;;;548.53;;
6097;SDS011;3077;50.922;6.584;2024-03-06T06:44:39;600.70;;;571.20;;
6097;SDS011;3077;50.922;6.584;2024-03-06T06:47:06;637.60;;;606.20;;
6097;SDS011;3077;50.922;6.584;2024-03-06T06:49:32;681.27;;;646.57;;
6097;SDS011;3077;50.922;6.584;2024-03-06T06:51:59;578.90;;;550.50;;
6097;SDS011;3077;50.922;6.584;2024-03-06T06:54:24;727.17;;;687.37;;
6097;SDS011;3077;50.922;6.584;2024-03-06T06:56:50;738.43;;;699.07;;
6097;SDS011;3077;50.922;6.584;2024-03-06T06:59:15;580.33;;;552.13;;
6097;SDS011;3077;50.922;6.584;2024-03-06T07:01:41;566.33;;;538.67;;
6097;SDS011;3077;50.922;6.584;2024-03-06T07:04:06;574.97;;;546.60;;
6097;SDS011;3077;50.922;6.584;2024-03-06T07:06:32;922.33;;;864.90;;
6097;SDS011;3077;50.922;6.584;2024-03-06T07:08:57;603.43;;;572.40;;
6097;SDS011;3077;50.922;6.584;2024-03-06T07:11:23;956.60;;;889.80;;
6097;SDS011;3077;50.922;6.584;2024-03-06T07:13:49;657.80;;;622.83;;
6097;SDS011;3077;50.922;6.584;2024-03-06T07:16:14;629.23;;;597.97;;
6097;SDS011;3077;50.922;6.584;2024-03-06T07:18:40;659.67;;;626.77;;
6097;SDS011;3077;50.922;6.584;2024-03-06T07:21:05;692.93;;;655.67;;
6097;SDS011;3077;50.922;6.584;2024-03-06T07:23:31;635.60;;;603.40;;
6097;SDS011;3077;50.922;6.584;2024-03-06T07:25:56;652.83;;;619.03;;
6097;SDS011;3077;50.922;6.584;2024-03-06T07:28:24;666.67;;;632.70;;
6097;SDS011;3077;50.922;6.584;2024-03-06T07:30:50;665.10;;;631.73;;
6097;SDS011;3077;50.922;6.584;2024-03-06T07:33:16;650.97;;;618.67;;
6097;SDS011;3077;50.922;6.584;2024-03-06T07:35:42;717.77;;;681.00;;
6097;SDS011;3077;50.922;6.584;2024-03-06T07:38:07;701.47;;;665.57;;
6097;SDS011;3077;50.922;6.584;2024-03-06T07:40:33;750.23;;;710.13;;
6097;SDS011;3077;50.922;6.584;2024-03-06T07:42:58;671.20;;;635.90;;
6097;SDS011;3077;50.922;6.584;2024-03-06T07:45:25;713.10;;;676.83;;
6097;SDS011;3077;50.922;6.584;2024-03-06T07:47:51;1021.70;;;953.30;;
6097;SDS011;3077;50.922;6.584;2024-03-06T07:50:17;1001.53;;;931.87;;
6097;SDS011;3077;50.922;6.584;2024-03-06T07:52:45;690.70;;;654.37;;
6097;SDS011;3077;50.922;6.584;2024-03-06T07:55:12;698.07;;;661.30;;
6097;SDS011;3077;50.922;6.584;2024-03-06T07:57:37;711.70;;;675.57;;
6097;SDS011;3077;50.922;6.584;2024-03-06T08:00:03;833.40;;;785.80;;
6097;SDS011;3077;50.922;6.584;2024-03-06T08:02:39;685.07;;;649.80;;
6097;SDS011;3077;50.922;6.584;2024-03-06T08:05:08;723.67;;;685.97;;
6097;SDS011;3077;50.922;6.584;2024-03-06T08:07:37;728.50;;;690.03;;
6097;SDS011;3077;50.922;6.584;2024-03-06T08:10:06;734.03;;;695.23;;
6097;SDS011;3077;50.922;6.584;2024-03-06T08:12:38;731.63;;;692.97;;
6097;SDS011;3077;50.922;6.584;2024-03-06T08:15:08;677.13;;;640.90;;
6097;SDS011;3077;50.922;6.584;2024-03-06T08:17:36;714.37;;;676.27;;
6097;SDS011;3077;50.922;6.584;2024-03-06T08:20:09;706.07;;;668.40;;
6097;SDS011;3077;50.922;6.584;2024-03-06T08:22:38;712.23;;;675.43;;
6097;SDS011;3077;50.922;6.584;2024-03-06T08:25:08;699.33;;;663.23;;
6097;SDS011;3077;50.922;6.584;2024-03-06T08:27:36;732.03;;;693.33;;
6097;SDS011;3077;50.922;6.584;2024-03-06T08:30:06;887.40;;;832.93;;
6097;SDS011;3077;50.922;6.584;2024-03-06T08:32:33;705.80;;;669.10;;
6097;SDS011;3077;50.922;6.584;2024-03-06T08:35:03;698.57;;;662.57;;
6097;SDS011;3077;50.922;6.584;2024-03-06T08:37:33;742.97;;;702.93;;
6097;SDS011;3077;50.922;6.584;2024-03-06T08:39:59;729.93;;;692.17;;
6097;SDS011;3077;50.922;6.584;2024-03-06T08:42:25;768.00;;;726.43;;
6097;SDS011;3077;50.922;6.584;2024-03-06T08:44:51;728.47;;;689.67;;
6097;SDS011;3077;50.922;6.584;2024-03-06T08:47:17;902.97;;;850.10;;
6097;SDS011;3077;50.922;6.584;2024-03-06T08:49:43;775.00;;;732.53;;
6097;SDS011;3077;50.922;6.584;2024-03-06T08:52:08;715.17;;;677.50;;
6097;SDS011;3077;50.922;6.584;2024-03-06T08:54:35;762.33;;;721.47;;
6097;SDS011;3077;50.922;6.584;2024-03-06T08:57:01;744.17;;;704.30;;
6097;SDS011;3077;50.922;6.584;2024-03-06T08:59:27;723.77;;;685.00;;
6097;SDS011;3077;50.922;6.584;2024-03-06T09:01:54;784.93;;;742.50;;
6097;SDS011;3077;50.922;6.584;2024-03-06T09:04:20;746.87;;;705.60;;
6097;SDS011;3077;50.922;6.584;2024-03-06T09:06:46;815.13;;;770.33;;
6097;SDS011;3077;50.922;6.584;2024-03-06T09:09:12;797.13;;;754.23;;
6097;SDS011;3077;50.922;6.584;2024-03-06T09:11:40;767.83;;;725.27;;
6097;SDS011;3077;50.922;6.584;2024-03-06T09:14:07;880.10;;;828.17;;
6097;SDS011;3077;50.922;6.584;2024-03-06T09:16:34;920.03;;;864.40;;
6097;SDS011;3077;50.922;6.584;2024-03-06T09:19:00;809.73;;;764.87;;
6097;SDS011;3077;50.922;6.584;2024-03-06T09:21:26;800.27;;;755.07;;
6097;SDS011;3077;50.922;6.584;2024-03-06T09:23:52;793.60;;;750.10;;
6097;SDS011;3077;50.922;6.584;2024-03-06T09:26:18;836.07;;;788.30;;
6097;SDS011;3077;50.922;6.584;2024-03-06T09:28:45;837.13;;;789.43;;
6097;SDS011;3077;50.922;6.584;2024-03-06T09:31:11;866.43;;;816.97;;
6097;SDS011;3077;50.922;6.584;2024-03-06T09:33:38;857.30;;;807.00;;
6097;SDS011;3077;50.922;6.584;2024-03-06T09:36:04;836.83;;;788.43;;
6097;SDS011;3077;50.922;6.584;2024-03-06T09:38:30;853.90;;;805.40;;
6097;SDS011;3077;50.922;6.584;2024-03-06T09:40:56;886.00;;;835.67;;
6097;SDS011;3077;50.922;6.584;2024-03-06T09:43:24;835.30;;;787.80;;
6097;SDS011;3077;50.922;6.584;2024-03-06T09:45:50;862.63;;;812.97;;
6097;SDS011;3077;50.922;6.584;2024-03-06T09:48:17;961.20;;;899.63;;
6097;SDS011;3077;50.922;6.584;2024-03-06T09:50:46;883.03;;;832.83;;
6097;SDS011;3077;50.922;6.584;2024-03-06T09:53:15;882.23;;;831.30;;
6097;SDS011;3077;50.922;6.584;2024-03-06T09:55:42;912.20;;;859.33;;
6097;SDS011;3077;50.922;6.584;2024-03-06T09:58:08;904.63;;;851.37;;
6097;SDS011;3077;50.922;6.584;2024-03-06T10:00:34;951.07;;;893.07;;
6097;SDS011;3077;50.922;6.584;2024-03-06T10:03:00;925.53;;;871.27;;
6097;SDS011;3077;50.922;6.584;2024-03-06T10:05:30;946.13;;;888.83;;
6097;SDS011;3077;50.922;6.584;2024-03-06T10:07:58;859.30;;;809.10;;
6097;SDS011;3077;50.922;6.584;2024-03-06T10:10:25;889.03;;;839.17;;
6097;SDS011;3077;50.922;6.584;2024-03-06T10:12:51;895.30;;;844.40;;
6097;SDS011;3077;50.922;6.584;2024-03-06T10:15:17;912.30;;;859.50;;
6097;SDS011;3077;50.922;6.584;2024-03-06T10:17:44;906.17;;;852.43;;
6097;SDS011;3077;50.922;6.584;2024-03-06T10:20:19;942.73;;;886.70;;
6097;SDS011;3077;50.922;6.584;2024-03-06T10:22:50;1081.13;;;999.37;;
6097;SDS011;3077;50.922;6.584;2024-03-06T10:25:20;944.83;;;888.53;;
6097;SDS011;3077;50.922;6.584;2024-03-06T10:28:04;946.33;;;890.33;;
6097;SDS011;3077;50.922;6.584;2024-03-06T10:30:43;927.23;;;873.53;;
6097;SDS011;3077;50.922;6.584;2024-03-06T10:33:10;963.83;;;906.23;;
6097;SDS011;3077;50.922;6.584;2024-03-06T10:35:40;963.97;;;906.07;;
6097;SDS011;3077;50.922;6.584;2024-03-06T10:38:07;949.07;;;893.07;;
6097;SDS011;3077;50.922;6.584;2024-03-06T10:40:34;975.37;;;916.73;;
6097;SDS011;3077;50.922;6.584;2024-03-06T10:43:02;973.53;;;914.27;;
6097;SDS011;3077;50.922;6.584;2024-03-06T10:45:49;970.77;;;911.37;;
6097;SDS011;3077;50.922;6.584;2024-03-06T10:48:17;1014.90;;;950.93;;
6097;SDS011;3077;50.922;6.584;2024-03-06T10:50:44;999.97;;;938.80;;
6097;SDS011;3077;50.922;6.584;2024-03-06T10:53:11;1145.07;;;999.90;;
6097;SDS011;3077;50.922;6.584;2024-03-06T10:55:38;1006.13;;;944.60;;
6097;SDS011;3077;50.922;6.584;2024-03-06T10:58:05;972.47;;;914.67;;
6097;SDS011;3077;50.922;6.584;2024-03-06T11:00:38;970.10;;;911.67;;
6097;SDS011;3077;50.922;6.584;2024-03-06T11:03:05;951.37;;;895.57;;
6097;SDS011;3077;50.922;6.584;2024-03-06T11:05:37;981.80;;;920.87;;
6097;SDS011;3077;50.922;6.584;2024-03-06T11:08:06;1176.13;;;999.90;;
6097;SDS011;3077;50.922;6.584;2024-03-06T11:10:34;950.23;;;893.37;;
6097;SDS011;3077;50.922;6.584;2024-03-06T11:13:01;1056.87;;;965.73;;
6097;SDS011;3077;50.922;6.584;2024-03-06T11:15:28;951.40;;;895.03;;
6097;SDS011;3077;50.922;6.584;2024-03-06T11:17:54;1159.03;;;999.90;;
6097;SDS011;3077;50.922;6.584;2024-03-06T11:20:20;945.63;;;887.97;;
6097;SDS011;3077;50.922;6.584;2024-03-06T11:28:23;919.00;;;865.07;;
6097;SDS011;3077;50.922;6.584;2024-03-06T11:30:55;924.93;;;870.13;;
6097;SDS011;3077;50.922;6.584;2024-03-06T11:33:43;856.57;;;809.00;;
6097;SDS011;3077;50.922;6.584;2024-03-06T11:36:26;801.57;;;758.23;;
6097;SDS011;3077;50.922;6.584;2024-03-06T11:38:56;796.77;;;751.83;;
6097;SDS011;3077;50.922;6.584;2024-03-06T11:41:31;822.10;;;777.20;;
6097;SDS011;3077;50.922;6.584;2024-03-06T11:44:00;851.37;;;803.27;;
6097;SDS011;3077;50.922;6.584;2024-03-06T11:46:45;863.00;;;814.30;;
6097;SDS011;3077;50.922;6.584;2024-03-06T11:49:19;611.87;;;580.40;;
6097;SDS011;3077;50.922;6.584;2024-03-06T11:51:46;422.60;;;400.87;;
6097;SDS011;3077;50.922;6.584;2024-03-06T11:54:13;234.83;;;220.40;;
6097;SDS011;3077;50.922;6.584;2024-03-06T11:56:40;307.00;;;289.57;;
6097;SDS011;3077;50.922;6.584;2024-03-06T11:59:06;79.93;;;58.33;;
6097;SDS011;3077;50.922;6.584;2024-03-06T12:01:32;76.13;;;45.57;;
6097;SDS011;3077;50.922;6.584;2024-03-06T12:04:01;84.77;;;63.70;;
6097;SDS011;3077;50.922;6.584;2024-03-06T12:06:29;90.50;;;72.87;;
6097;SDS011;3077;50.922;6.584;2024-03-06T12:08:56;125.40;;;113.93;;
6097;SDS011;3077;50.922;6.584;2024-03-06T12:11:23;121.00;;;109.23;;
6097;SDS011;3077;50.922;6.584;2024-03-06T12:13:51;109.60;;;98.47;;
6097;SDS011;3077;50.922;6.584;2024-03-06T12:16:16;238.03;;;223.23;;
6097;SDS011;3077;50.922;6.584;2024-03-06T12:18:42;403.27;;;382.80;;
6097;SDS011;3077;50.922;6.584;2024-03-06T12:21:10;443.63;;;422.50;;
6097;SDS011;3077;50.922;6.584;2024-03-06T12:23:36;637.37;;;605.80;;
6097;SDS011;3077;50.922;6.584;2024-03-06T12:26:02;557.93;;;531.23;;
6097;SDS011;3077;50.922;6.584;2024-03-06T12:28:34;463.73;;;441.63;;
6097;SDS011;3077;50.922;6.584;2024-03-06T12:31:01;460.13;;;438.30;;
6097;SDS011;3077;50.922;6.584;2024-03-06T12:33:28;432.00;;;411.23;;
6097;SDS011;3077;50.922;6.584;2024-03-06T12:36:06;310.53;;;294.27;;
6097;SDS011;3077;50.922;6.584;2024-03-06T12:38:35;319.07;;;302.80;;
6097;SDS011;3077;50.922;6.584;2024-03-06T12:41:01;205.73;;;192.33;;
6097;SDS011;3077;50.922;6.584;2024-03-06T12:43:28;183.23;;;170.60;;
6097;SDS011;3077;50.922;6.584;2024-03-06T12:45:53;165.10;;;152.63;;
6097;SDS011;3077;50.922;6.584;2024-03-06T12:48:20;245.23;;;230.67;;
6097;SDS011;3077;50.922;6.584;2024-03-06T12:50:46;311.57;;;295.57;;
6097;SDS011;3077;50.922;6.584;2024-03-06T12:53:17;154.40;;;142.17;;
6097;SDS011;3077;50.922;6.584;2024-03-06T12:55:43;183.63;;;170.43;;
6097;SDS011;3077;50.922;6.584;2024-03-06T12:58:10;215.90;;;201.67;;
6097;SDS011;3077;50.922;6.584;2024-03-06T13:00:36;263.77;;;248.47;;
6097;SDS011;3077;50.922;6.584;2024-03-06T13:03:02;188.60;;;175.10;;
6097;SDS011;3077;50.922;6.584;2024-03-06T13:05:28;238.93;;;223.90;;
6097;SDS011;3077;50.922;6.584;2024-03-06T13:07:53;327.83;;;309.10;;
6097;SDS011;3077;50.922;6.584;2024-03-06T13:10:19;229.33;;;214.43;;
6097;SDS011;3077;50.922;6.584;2024-03-06T13:12:47;143.00;;;130.70;;
6097;SDS011;3077;50.922;6.584;2024-03-06T13:15:15;136.83;;;124.63;;
6097;SDS011;3077;50.922;6.584;2024-03-06T13:17:40;181.07;;;167.37;;
6097;SDS011;3077;50.922;6.584;2024-03-06T13:20:07;320.53;;;302.30;;
6097;SDS011;3077;50.922;6.584;2024-03-06T13:22:39;530.03;;;504.03;;
6097;SDS011;3077;50.922;6.584;2024-03-06T13:25:05;526.97;;;500.53;;
6097;SDS011;3077;50.922;6.584;2024-03-06T13:27:31;332.63;;;315.00;;
6097;SDS011;3077;50.922;6.584;2024-03-06T13:29:57;433.27;;;411.43;;
6097;SDS011;3077;50.922;6.584;2024-03-06T13:32:23;437.97;;;415.97;;
6097;SDS011;3077;50.922;6.584;2024-03-06T13:34:49;429.50;;;407.70;;
6097;SDS011;3077;50.922;6.584;2024-03-06T13:37:15;282.40;;;266.60;;
6097;SDS011;3077;50.922;6.584;2024-03-06T13:39:41;300.27;;;283.90;;
6097;SDS011;3077;50.922;6.584;2024-03-06T13:42:07;452.30;;;430.57;;
6097;SDS011;3077;50.922;6.584;2024-03-06T13:44:33;408.33;;;388.13;;
6097;SDS011;3077;50.922;6.584;2024-03-06T13:47:02;365.43;;;347.57;;
6097;SDS011;3077;50.922;6.584;2024-03-06T13:49:36;319.57;;;302.83;;
6097;SDS011;3077;50.922;6.584;2024-03-06T13:52:06;197.30;;;183.70;;
6097;SDS011;3077;50.922;6.584;2024-03-06T13:54:34;400.87;;;380.27;;
6097;SDS011;3077;50.922;6.584;2024-03-06T13:57:00;237.20;;;221.67;;
6097;SDS011;3077;50.922;6.584;2024-03-06T13:59:29;331.60;;;313.43;;
6097;SDS011;3077;50.922;6.584;2024-03-06T14:01:55;339.67;;;321.37;;
6097;SDS011;3077;50.922;6.584;2024-03-06T14:04:21;295.07;;;277.77;;
6097;SDS011;3077;50.922;6.584;2024-03-06T14:06:47;462.87;;;439.87;;
6097;SDS011;3077;50.922;6.584;2024-03-06T14:09:13;214.47;;;199.33;;
6097;SDS011;3077;50.922;6.584;2024-03-06T14:11:39;493.20;;;468.73;;
6097;SDS011;3077;50.922;6.584;2024-03-06T14:14:05;278.97;;;261.80;;
6097;SDS011;3077;50.922;6.584;2024-03-06T14:16:31;417.40;;;396.27;;
6097;SDS011;3077;50.922;6.584;2024-03-06T14:18:57;324.80;;;307.40;;
6097;SDS011;3077;50.922;6.584;2024-03-06T14:21:22;278.97;;;263.13;;
6097;SDS011;3077;50.922;6.584;2024-03-06T14:23:48;303.07;;;285.90;;
6097;SDS011;3077;50.922;6.584;2024-03-06T14:26:14;292.07;;;275.73;;